sensor_id;sensor_type;location;lat;lon;timestamp;temperature;humidity
30134;DHT22;16946;49.984;10.672;2023-05-29T00:00:07;12.10;32.50
30134;DHT22;16946;49.984;10.672;2023-05-29T00:00:38;12.10;31.80
30134;DHT22;16946;49.984;10.672;2023-05-29T00:01:08;12.10;27.90
30134;DHT22;16946;49.984;10.672;2023-05-29T00:01:39;12.10;25.50
30134;DHT22;16946;49.984;10.672;2023-05-29T00:02:11;12.10;29.20
30134;DHT22;16946;49.984;10.672;2023-05-29T00:02:41;12.00;34.30
30134;DHT22;16946;49.984;10.672;2023-05-29T00:03:14;11.90;39.00
30134;DHT22;16946;49.984;10.672;2023-05-29T00:03:45;11.80;45.00
30134;DHT22;16946;49.984;10.672;2023-05-29T00:04:15;11.80;48.20
30134;DHT22;16946;49.984;10.672;2023-05-29T00:04:46;11.70;50.70
30134;DHT22;16946;49.984;10.672;2023-05-29T00:05:17;11.70;55.60
30134;DHT22;16946;49.984;10.672;2023-05-29T00:05:47;11.70;58.60
30134;DHT22;16946;49.984;10.672;2023-05-29T00:06:19;11.60;61.80
30134;DHT22;16946;49.984;10.672;2023-05-29T00:06:50;11.60;62.30
30134;DHT22;16946;49.984;10.672;2023-05-29T00:07:21;11.60;63.10
30134;DHT22;16946;49.984;10.672;2023-05-29T00:07:51;11.60;61.40
30134;DHT22;16946;49.984;10.672;2023-05-29T00:08:22;11.50;63.30
30134;DHT22;16946;49.984;10.672;2023-05-29T00:08:52;11.50;65.70
30134;DHT22;16946;49.984;10.672;2023-05-29T00:09:23;11.60;65.60
30134;DHT22;16946;49.984;10.672;2023-05-29T00:09:53;11.50;66.40
30134;DHT22;16946;49.984;10.672;2023-05-29T00:10:24;11.50;65.30
30134;DHT22;16946;49.984;10.672;2023-05-29T00:10:54;11.50;69.80
30134;DHT22;16946;49.984;10.672;2023-05-29T00:11:25;11.50;72.40
30134;DHT22;16946;49.984;10.672;2023-05-29T00:11:56;11.50;72.40
30134;DHT22;16946;49.984;10.672;2023-05-29T00:12:26;11.50;74.20
30134;DHT22;16946;49.984;10.672;2023-05-29T00:12:57;11.50;71.40
30134;DHT22;16946;49.984;10.672;2023-05-29T00:13:28;11.50;69.30
30134;DHT22;16946;49.984;10.672;2023-05-29T00:13:58;11.50;67.40
30134;DHT22;16946;49.984;10.672;2023-05-29T00:14:29;11.60;65.40
30134;DHT22;16946;49.984;10.672;2023-05-29T00:14:59;11.60;68.10
30134;DHT22;16946;49.984;10.672;2023-05-29T00:15:30;11.60;63.90
30134;DHT22;16946;49.984;10.672;2023-05-29T00:16:01;11.70;56.90
30134;DHT22;16946;49.984;10.672;2023-05-29T00:16:31;11.80;51.50
30134;DHT22;16946;49.984;10.672;2023-05-29T00:17:02;11.80;52.60
30134;DHT22;16946;49.984;10.672;2023-05-29T00:17:33;11.80;52.70
30134;DHT22;16946;49.984;10.672;2023-05-29T00:18:03;11.80;47.60
30134;DHT22;16946;49.984;10.672;2023-05-29T00:18:34;11.80;46.40
30134;DHT22;16946;49.984;10.672;2023-05-29T00:19:05;11.80;46.10
30134;DHT22;16946;49.984;10.672;2023-05-29T00:19:35;11.80;45.00
30134;DHT22;16946;49.984;10.672;2023-05-29T00:20:06;11.80;44.10
30134;DHT22;16946;49.984;10.672;2023-05-29T00:20:39;11.80;41.90
30134;DHT22;16946;49.984;10.672;2023-05-29T00:21:12;11.80;40.70
30134;DHT22;16946;49.984;10.672;2023-05-29T00:21:43;11.80;41.00
30134;DHT22;16946;49.984;10.672;2023-05-29T00:22:17;11.90;40.30
30134;DHT22;16946;49.984;10.672;2023-05-29T00:22:48;11.90;43.60
30134;DHT22;16946;49.984;10.672;2023-05-29T00:23:19;11.90;39.60
30134;DHT22;16946;49.984;10.672;2023-05-29T00:23:50;11.90;40.90
30134;DHT22;16946;49.984;10.672;2023-05-29T00:24:20;11.90;40.00
30134;DHT22;16946;49.984;10.672;2023-05-29T00:24:51;11.90;39.70
30134;DHT22;16946;49.984;10.672;2023-05-29T00:25:22;11.80;38.10
30134;DHT22;16946;49.984;10.672;2023-05-29T00:25:53;11.90;38.20
30134;DHT22;16946;49.984;10.672;2023-05-29T00:26:23;11.90;38.30
30134;DHT22;16946;49.984;10.672;2023-05-29T00:26:54;11.80;37.10
30134;DHT22;16946;49.984;10.672;2023-05-29T00:27:24;11.90;38.00
30134;DHT22;16946;49.984;10.672;2023-05-29T00:27:56;11.80;40.50
30134;DHT22;16946;49.984;10.672;2023-05-29T00:28:26;11.80;42.70
30134;DHT22;16946;49.984;10.672;2023-05-29T00:28:57;11.80;44.80
30134;DHT22;16946;49.984;10.672;2023-05-29T00:29:27;11.80;46.30
30134;DHT22;16946;49.984;10.672;2023-05-29T00:29:58;11.70;49.00
30134;DHT22;16946;49.984;10.672;2023-05-29T00:30:29;11.70;48.60
30134;DHT22;16946;49.984;10.672;2023-05-29T00:30:59;11.70;49.20
30134;DHT22;16946;49.984;10.672;2023-05-29T00:31:30;11.70;48.20
30134;DHT22;16946;49.984;10.672;2023-05-29T00:32:01;11.70;50.10
30134;DHT22;16946;49.984;10.672;2023-05-29T00:32:32;11.70;49.40
30134;DHT22;16946;49.984;10.672;2023-05-29T00:33:03;11.80;44.10
30134;DHT22;16946;49.984;10.672;2023-05-29T00:33:33;11.80;44.20
30134;DHT22;16946;49.984;10.672;2023-05-29T00:34:04;11.80;41.50
30134;DHT22;16946;49.984;10.672;2023-05-29T00:34:34;11.80;40.00
30134;DHT22;16946;49.984;10.672;2023-05-29T00:35:06;11.80;39.70
30134;DHT22;16946;49.984;10.672;2023-05-29T00:35:36;11.80;40.80
30134;DHT22;16946;49.984;10.672;2023-05-29T00:36:07;11.80;43.30
30134;DHT22;16946;49.984;10.672;2023-05-29T00:36:38;11.70;50.60
30134;DHT22;16946;49.984;10.672;2023-05-29T00:37:08;11.70;56.30
30134;DHT22;16946;49.984;10.672;2023-05-29T00:37:39;11.70;58.10
30134;DHT22;16946;49.984;10.672;2023-05-29T00:38:09;11.60;65.70
30134;DHT22;16946;49.984;10.672;2023-05-29T00:38:40;11.60;67.40
30134;DHT22;16946;49.984;10.672;2023-05-29T00:39:10;11.50;68.30
30134;DHT22;16946;49.984;10.672;2023-05-29T00:39:41;11.50;74.60
30134;DHT22;16946;49.984;10.672;2023-05-29T00:40:11;11.40;74.90
30134;DHT22;16946;49.984;10.672;2023-05-29T00:40:42;11.40;78.20
30134;DHT22;16946;49.984;10.672;2023-05-29T00:41:16;11.30;80.10
30134;DHT22;16946;49.984;10.672;2023-05-29T00:41:47;11.30;86.40
30134;DHT22;16946;49.984;10.672;2023-05-29T00:42:21;11.20;90.20
30134;DHT22;16946;49.984;10.672;2023-05-29T00:42:52;11.20;92.10
30134;DHT22;16946;49.984;10.672;2023-05-29T00:43:22;11.20;92.50
30134;DHT22;16946;49.984;10.672;2023-05-29T00:43:53;11.20;92.00
30134;DHT22;16946;49.984;10.672;2023-05-29T00:44:23;11.10;93.00
30134;DHT22;16946;49.984;10.672;2023-05-29T00:44:54;11.10;94.80
30134;DHT22;16946;49.984;10.672;2023-05-29T00:45:24;11.00;96.20
30134;DHT22;16946;49.984;10.672;2023-05-29T00:45:56;11.10;96.00
30134;DHT22;16946;49.984;10.672;2023-05-29T00:46:27;11.00;98.30
30134;DHT22;16946;49.984;10.672;2023-05-29T00:46:58;10.90;99.90
30134;DHT22;16946;49.984;10.672;2023-05-29T00:47:29;10.90;99.90
30134;DHT22;16946;49.984;10.672;2023-05-29T00:48:00;10.90;99.90
30134;DHT22;16946;49.984;10.672;2023-05-29T00:48:30;10.90;99.90
30134;DHT22;16946;49.984;10.672;2023-05-29T00:49:01;10.80;99.90
30134;DHT22;16946;49.984;10.672;2023-05-29T00:49:32;10.80;99.90
30134;DHT22;16946;49.984;10.672;2023-05-29T00:50:03;10.80;99.90
30134;DHT22;16946;49.984;10.672;2023-05-29T00:50:35;10.90;99.90
30134;DHT22;16946;49.984;10.672;2023-05-29T00:51:05;10.90;99.90
30134;DHT22;16946;49.984;10.672;2023-05-29T00:51:36;10.90;99.20
30134;DHT22;16946;49.984;10.672;2023-05-29T00:52:08;11.00;98.80
30134;DHT22;16946;49.984;10.672;2023-05-29T00:52:41;11.00;97.30
30134;DHT22;16946;49.984;10.672;2023-05-29T00:53:13;11.00;95.90
30134;DHT22;16946;49.984;10.672;2023-05-29T00:53:44;11.10;94.80
30134;DHT22;16946;49.984;10.672;2023-05-29T00:54:23;11.10;92.40
30134;DHT22;16946;49.984;10.672;2023-05-29T00:54:57;11.10;92.10
30134;DHT22;16946;49.984;10.672;2023-05-29T00:55:29;11.20;91.70
30134;DHT22;16946;49.984;10.672;2023-05-29T00:56:00;11.20;89.90
30134;DHT22;16946;49.984;10.672;2023-05-29T00:56:31;11.20;89.70
30134;DHT22;16946;49.984;10.672;2023-05-29T00:57:02;11.20;90.20
30134;DHT22;16946;49.984;10.672;2023-05-29T00:57:35;11.20;89.80
30134;DHT22;16946;49.984;10.672;2023-05-29T00:58:06;11.30;84.50
30134;DHT22;16946;49.984;10.672;2023-05-29T00:58:37;11.30;86.10
30134;DHT22;16946;49.984;10.672;2023-05-29T00:59:08;11.20;88.10
30134;DHT22;16946;49.984;10.672;2023-05-29T00:59:39;11.30;86.60
30134;DHT22;16946;49.984;10.672;2023-05-29T01:00:11;11.30;85.70
30134;DHT22;16946;49.984;10.672;2023-05-29T01:00:44;11.30;84.50
30134;DHT22;16946;49.984;10.672;2023-05-29T01:01:17;11.30;85.30
30134;DHT22;16946;49.984;10.672;2023-05-29T01:01:51;11.30;82.20
30134;DHT22;16946;49.984;10.672;2023-05-29T01:02:22;11.30;79.60
30134;DHT22;16946;49.984;10.672;2023-05-29T01:02:53;11.30;79.10
30134;DHT22;16946;49.984;10.672;2023-05-29T01:03:24;11.40;74.90
30134;DHT22;16946;49.984;10.672;2023-05-29T01:03:55;11.40;73.50
30134;DHT22;16946;49.984;10.672;2023-05-29T01:04:27;11.40;68.40
30134;DHT22;16946;49.984;10.672;2023-05-29T01:04:58;11.50;62.20
30134;DHT22;16946;49.984;10.672;2023-05-29T01:05:30;11.50;58.60
30134;DHT22;16946;49.984;10.672;2023-05-29T01:06:01;11.50;56.90
30134;DHT22;16946;49.984;10.672;2023-05-29T01:06:33;11.50;56.20
30134;DHT22;16946;49.984;10.672;2023-05-29T01:07:04;11.50;59.40
30134;DHT22;16946;49.984;10.672;2023-05-29T01:07:34;11.50;57.70
30134;DHT22;16946;49.984;10.672;2023-05-29T01:08:05;11.40;57.30
30134;DHT22;16946;49.984;10.672;2023-05-29T01:08:36;11.40;59.90
30134;DHT22;16946;49.984;10.672;2023-05-29T01:09:07;11.40;65.10
30134;DHT22;16946;49.984;10.672;2023-05-29T01:09:37;11.40;66.20
30134;DHT22;16946;49.984;10.672;2023-05-29T01:10:08;11.40;64.30
30134;DHT22;16946;49.984;10.672;2023-05-29T01:10:40;11.40;63.00
30134;DHT22;16946;49.984;10.672;2023-05-29T01:12:08;11.40;69.00
30134;DHT22;16946;49.984;10.672;2023-05-29T01:13:03;11.30;68.60
30134;DHT22;16946;49.984;10.672;2023-05-29T01:13:35;11.30;74.50
30134;DHT22;16946;49.984;10.672;2023-05-29T01:14:09;11.20;84.20
30134;DHT22;16946;49.984;10.672;2023-05-29T01:15:01;11.20;86.20
30134;DHT22;16946;49.984;10.672;2023-05-29T01:16:35;11.10;91.10
30134;DHT22;16946;49.984;10.672;2023-05-29T01:17:18;11.10;91.60
30134;DHT22;16946;49.984;10.672;2023-05-29T01:18:57;11.10;94.40
30134;DHT22;16946;49.984;10.672;2023-05-29T01:20:40;11.10;92.70
30134;DHT22;16946;49.984;10.672;2023-05-29T01:22:31;11.10;92.00
30134;DHT22;16946;49.984;10.672;2023-05-29T01:24:53;11.10;88.50
30134;DHT22;16946;49.984;10.672;2023-05-29T01:25:46;11.10;83.30
30134;DHT22;16946;49.984;10.672;2023-05-29T01:27:06;11.00;94.30
30134;DHT22;16946;49.984;10.672;2023-05-29T01:27:40;11.00;93.50
30134;DHT22;16946;49.984;10.672;2023-05-29T01:28:12;10.90;93.40
30134;DHT22;16946;49.984;10.672;2023-05-29T01:28:48;10.80;98.40
30134;DHT22;16946;49.984;10.672;2023-05-29T01:29:23;10.60;99.90
30134;DHT22;16946;49.984;10.672;2023-05-29T01:29:55;10.50;99.90
30134;DHT22;16946;49.984;10.672;2023-05-29T01:30:27;10.50;99.90
30134;DHT22;16946;49.984;10.672;2023-05-29T01:30:58;10.50;99.90
30134;DHT22;16946;49.984;10.672;2023-05-29T01:31:31;10.50;99.90
30134;DHT22;16946;49.984;10.672;2023-05-29T01:32:03;10.50;99.90
30134;DHT22;16946;49.984;10.672;2023-05-29T01:32:34;10.40;99.90
30134;DHT22;16946;49.984;10.672;2023-05-29T01:33:05;10.50;99.90
30134;DHT22;16946;49.984;10.672;2023-05-29T01:33:39;10.50;99.90
30134;DHT22;16946;49.984;10.672;2023-05-29T01:34:11;10.60;99.90
30134;DHT22;16946;49.984;10.672;2023-05-29T01:34:41;10.60;99.90
30134;DHT22;16946;49.984;10.672;2023-05-29T01:35:12;10.60;99.90
30134;DHT22;16946;49.984;10.672;2023-05-29T01:35:42;10.60;99.90
30134;DHT22;16946;49.984;10.672;2023-05-29T01:36:13;10.60;99.90
30134;DHT22;16946;49.984;10.672;2023-05-29T01:36:43;10.60;99.90
30134;DHT22;16946;49.984;10.672;2023-05-29T01:37:14;10.60;99.90
30134;DHT22;16946;49.984;10.672;2023-05-29T01:37:44;10.60;99.90
30134;DHT22;16946;49.984;10.672;2023-05-29T01:38:15;10.50;99.90
30134;DHT22;16946;49.984;10.672;2023-05-29T01:38:47;10.50;99.90
30134;DHT22;16946;49.984;10.672;2023-05-29T01:39:17;10.50;99.90
30134;DHT22;16946;49.984;10.672;2023-05-29T01:39:49;10.40;99.90
30134;DHT22;16946;49.984;10.672;2023-05-29T01:40:20;10.40;99.90
30134;DHT22;16946;49.984;10.672;2023-05-29T01:40:51;10.40;99.90
30134;DHT22;16946;49.984;10.672;2023-05-29T01:41:23;10.40;99.90
30134;DHT22;16946;49.984;10.672;2023-05-29T01:41:54;10.40;99.90
30134;DHT22;16946;49.984;10.672;2023-05-29T01:42:27;10.30;99.90
30134;DHT22;16946;49.984;10.672;2023-05-29T01:42:58;10.20;99.90
30134;DHT22;16946;49.984;10.672;2023-05-29T01:43:29;10.20;99.90
30134;DHT22;16946;49.984;10.672;2023-05-29T01:44:03;10.10;99.90
30134;DHT22;16946;49.984;10.672;2023-05-29T01:44:36;10.00;99.90
30134;DHT22;16946;49.984;10.672;2023-05-29T01:45:08;10.00;99.90
30134;DHT22;16946;49.984;10.672;2023-05-29T01:45:39;10.00;99.90
30134;DHT22;16946;49.984;10.672;2023-05-29T01:46:10;10.00;99.90
30134;DHT22;16946;49.984;10.672;2023-05-29T01:46:42;10.00;99.90
30134;DHT22;16946;49.984;10.672;2023-05-29T01:47:13;9.90;99.90
30134;DHT22;16946;49.984;10.672;2023-05-29T01:47:43;9.90;99.90
30134;DHT22;16946;49.984;10.672;2023-05-29T01:48:14;9.90;99.90
30134;DHT22;16946;49.984;10.672;2023-05-29T01:48:46;9.90;99.90
30134;DHT22;16946;49.984;10.672;2023-05-29T01:49:18;9.90;99.90
30134;DHT22;16946;49.984;10.672;2023-05-29T01:49:50;9.90;99.90
30134;DHT22;16946;49.984;10.672;2023-05-29T01:50:22;9.90;99.90
30134;DHT22;16946;49.984;10.672;2023-05-29T01:50:54;9.90;99.90
30134;DHT22;16946;49.984;10.672;2023-05-29T01:51:25;9.90;99.90
30134;DHT22;16946;49.984;10.672;2023-05-29T01:51:56;9.90;99.90
30134;DHT22;16946;49.984;10.672;2023-05-29T01:52:26;9.80;99.90
30134;DHT22;16946;49.984;10.672;2023-05-29T01:52:57;9.80;99.90
30134;DHT22;16946;49.984;10.672;2023-05-29T01:53:27;9.80;99.90
30134;DHT22;16946;49.984;10.672;2023-05-29T01:53:59;9.80;99.90
30134;DHT22;16946;49.984;10.672;2023-05-29T01:54:32;9.80;99.90
30134;DHT22;16946;49.984;10.672;2023-05-29T01:55:03;9.80;99.90
30134;DHT22;16946;49.984;10.672;2023-05-29T01:55:34;9.80;99.90
30134;DHT22;16946;49.984;10.672;2023-05-29T01:56:05;9.90;99.90
30134;DHT22;16946;49.984;10.672;2023-05-29T01:56:37;9.90;99.90
30134;DHT22;16946;49.984;10.672;2023-05-29T01:57:08;10.00;99.90
30134;DHT22;16946;49.984;10.672;2023-05-29T01:57:40;10.00;99.90
30134;DHT22;16946;49.984;10.672;2023-05-29T01:58:11;10.00;99.90
30134;DHT22;16946;49.984;10.672;2023-05-29T01:58:43;10.10;99.90
30134;DHT22;16946;49.984;10.672;2023-05-29T01:59:14;10.10;99.90
30134;DHT22;16946;49.984;10.672;2023-05-29T01:59:46;10.10;99.90
30134;DHT22;16946;49.984;10.672;2023-05-29T02:00:17;10.20;99.90
30134;DHT22;16946;49.984;10.672;2023-05-29T02:00:49;10.20;99.90
30134;DHT22;16946;49.984;10.672;2023-05-29T02:01:21;10.30;99.90
30134;DHT22;16946;49.984;10.672;2023-05-29T02:01:51;10.30;99.90
30134;DHT22;16946;49.984;10.672;2023-05-29T02:02:22;10.30;99.90
30134;DHT22;16946;49.984;10.672;2023-05-29T02:02:55;10.30;99.90
30134;DHT22;16946;49.984;10.672;2023-05-29T02:03:26;10.30;99.90
30134;DHT22;16946;49.984;10.672;2023-05-29T02:03:59;10.30;99.90
30134;DHT22;16946;49.984;10.672;2023-05-29T02:04:30;10.30;99.90
30134;DHT22;16946;49.984;10.672;2023-05-29T02:05:00;10.30;99.90
30134;DHT22;16946;49.984;10.672;2023-05-29T02:05:31;10.30;99.90
30134;DHT22;16946;49.984;10.672;2023-05-29T02:06:01;10.30;99.90
30134;DHT22;16946;49.984;10.672;2023-05-29T02:06:32;10.40;99.90
30134;DHT22;16946;49.984;10.672;2023-05-29T02:07:03;10.40;99.90
30134;DHT22;16946;49.984;10.672;2023-05-29T02:07:35;10.40;99.90
30134;DHT22;16946;49.984;10.672;2023-05-29T02:08:08;10.40;99.90
30134;DHT22;16946;49.984;10.672;2023-05-29T02:08:39;10.50;99.90
30134;DHT22;16946;49.984;10.672;2023-05-29T02:09:09;10.50;98.60
30134;DHT22;16946;49.984;10.672;2023-05-29T02:09:40;10.50;97.70
30134;DHT22;16946;49.984;10.672;2023-05-29T02:10:10;10.50;96.60
30134;DHT22;16946;49.984;10.672;2023-05-29T02:10:41;10.60;96.80
30134;DHT22;16946;49.984;10.672;2023-05-29T02:11:12;10.50;95.50
30134;DHT22;16946;49.984;10.672;2023-05-29T02:11:42;10.50;95.70
30134;DHT22;16946;49.984;10.672;2023-05-29T02:12:15;10.60;94.50
30134;DHT22;16946;49.984;10.672;2023-05-29T02:12:46;10.60;95.60
30134;DHT22;16946;49.984;10.672;2023-05-29T02:13:17;10.50;97.20
30134;DHT22;16946;49.984;10.672;2023-05-29T02:13:47;10.50;97.80
30134;DHT22;16946;49.984;10.672;2023-05-29T02:14:18;10.40;97.70
30134;DHT22;16946;49.984;10.672;2023-05-29T02:14:48;10.50;98.20
30134;DHT22;16946;49.984;10.672;2023-05-29T02:15:19;10.50;98.50
30134;DHT22;16946;49.984;10.672;2023-05-29T02:15:50;10.50;95.70
30134;DHT22;16946;49.984;10.672;2023-05-29T02:16:20;10.50;95.40
30134;DHT22;16946;49.984;10.672;2023-05-29T02:16:51;10.50;94.90
30134;DHT22;16946;49.984;10.672;2023-05-29T02:17:22;10.50;95.50
30134;DHT22;16946;49.984;10.672;2023-05-29T02:17:52;10.50;95.90
30134;DHT22;16946;49.984;10.672;2023-05-29T02:18:23;10.50;94.60
30134;DHT22;16946;49.984;10.672;2023-05-29T02:18:53;10.60;92.80
30134;DHT22;16946;49.984;10.672;2023-05-29T02:19:24;10.60;92.20
30134;DHT22;16946;49.984;10.672;2023-05-29T02:19:55;10.60;93.10
30134;DHT22;16946;49.984;10.672;2023-05-29T02:20:26;10.60;92.60
30134;DHT22;16946;49.984;10.672;2023-05-29T02:20:57;10.60;91.50
30134;DHT22;16946;49.984;10.672;2023-05-29T02:21:27;10.60;91.50
30134;DHT22;16946;49.984;10.672;2023-05-29T02:21:58;10.60;90.80
30134;DHT22;16946;49.984;10.672;2023-05-29T02:22:28;10.60;91.50
30134;DHT22;16946;49.984;10.672;2023-05-29T02:22:59;10.60;91.20
30134;DHT22;16946;49.984;10.672;2023-05-29T02:23:29;10.70;90.80
30134;DHT22;16946;49.984;10.672;2023-05-29T02:24:00;10.70;91.00
30134;DHT22;16946;49.984;10.672;2023-05-29T02:24:30;10.70;86.00
30134;DHT22;16946;49.984;10.672;2023-05-29T02:25:01;10.70;88.00
30134;DHT22;16946;49.984;10.672;2023-05-29T02:25:31;10.80;88.20
30134;DHT22;16946;49.984;10.672;2023-05-29T02:26:02;10.80;83.60
30134;DHT22;16946;49.984;10.672;2023-05-29T02:26:32;10.80;90.20
30134;DHT22;16946;49.984;10.672;2023-05-29T02:27:03;10.70;93.10
30134;DHT22;16946;49.984;10.672;2023-05-29T02:27:34;10.70;93.50
30134;DHT22;16946;49.984;10.672;2023-05-29T02:28:04;10.70;94.20
30134;DHT22;16946;49.984;10.672;2023-05-29T02:28:35;10.70;94.20
30134;DHT22;16946;49.984;10.672;2023-05-29T02:29:06;10.70;92.50
30134;DHT22;16946;49.984;10.672;2023-05-29T02:29:37;10.70;92.60
30134;DHT22;16946;49.984;10.672;2023-05-29T02:30:07;10.70;91.60
30134;DHT22;16946;49.984;10.672;2023-05-29T02:30:38;10.70;92.00
30134;DHT22;16946;49.984;10.672;2023-05-29T02:31:09;10.70;92.00
30134;DHT22;16946;49.984;10.672;2023-05-29T02:31:40;10.70;91.20
30134;DHT22;16946;49.984;10.672;2023-05-29T02:32:11;10.70;91.30
30134;DHT22;16946;49.984;10.672;2023-05-29T02:32:41;10.70;91.00
30134;DHT22;16946;49.984;10.672;2023-05-29T02:33:12;10.70;92.20
30134;DHT22;16946;49.984;10.672;2023-05-29T02:33:42;10.70;93.70
30134;DHT22;16946;49.984;10.672;2023-05-29T02:34:13;10.70;94.10
30134;DHT22;16946;49.984;10.672;2023-05-29T02:34:43;10.70;97.00
30134;DHT22;16946;49.984;10.672;2023-05-29T02:35:14;10.70;97.10
30134;DHT22;16946;49.984;10.672;2023-05-29T02:35:45;10.70;94.90
30134;DHT22;16946;49.984;10.672;2023-05-29T02:36:16;10.70;94.20
30134;DHT22;16946;49.984;10.672;2023-05-29T02:36:46;10.70;94.30
30134;DHT22;16946;49.984;10.672;2023-05-29T02:37:17;10.70;94.80
30134;DHT22;16946;49.984;10.672;2023-05-29T02:37:47;10.60;95.70
30134;DHT22;16946;49.984;10.672;2023-05-29T02:38:18;10.60;99.90
30134;DHT22;16946;49.984;10.672;2023-05-29T02:38:49;10.60;97.50
30134;DHT22;16946;49.984;10.672;2023-05-29T02:39:20;10.70;96.60
30134;DHT22;16946;49.984;10.672;2023-05-29T02:39:51;10.70;94.60
30134;DHT22;16946;49.984;10.672;2023-05-29T02:40:21;10.70;87.10
30134;DHT22;16946;49.984;10.672;2023-05-29T02:40:52;10.70;85.40
30134;DHT22;16946;49.984;10.672;2023-05-29T02:41:24;10.70;85.00
30134;DHT22;16946;49.984;10.672;2023-05-29T02:41:55;10.70;87.10
30134;DHT22;16946;49.984;10.672;2023-05-29T02:42:25;10.70;86.60
30134;DHT22;16946;49.984;10.672;2023-05-29T02:42:56;10.70;90.10
30134;DHT22;16946;49.984;10.672;2023-05-29T02:43:26;10.70;85.70
30134;DHT22;16946;49.984;10.672;2023-05-29T02:43:57;10.70;87.10
30134;DHT22;16946;49.984;10.672;2023-05-29T02:44:27;10.70;81.30
30134;DHT22;16946;49.984;10.672;2023-05-29T02:44:58;10.70;84.60
30134;DHT22;16946;49.984;10.672;2023-05-29T02:45:28;10.60;83.40
30134;DHT22;16946;49.984;10.672;2023-05-29T02:45:59;10.70;87.70
30134;DHT22;16946;49.984;10.672;2023-05-29T02:46:29;10.60;86.50
30134;DHT22;16946;49.984;10.672;2023-05-29T02:47:00;10.60;84.40
30134;DHT22;16946;49.984;10.672;2023-05-29T02:47:30;10.60;90.20
30134;DHT22;16946;49.984;10.672;2023-05-29T02:48:01;10.60;84.90
30134;DHT22;16946;49.984;10.672;2023-05-29T02:48:31;10.60;83.90
30134;DHT22;16946;49.984;10.672;2023-05-29T02:49:02;10.60;83.50
30134;DHT22;16946;49.984;10.672;2023-05-29T02:49:32;10.60;90.00
30134;DHT22;16946;49.984;10.672;2023-05-29T02:50:04;10.60;88.30
30134;DHT22;16946;49.984;10.672;2023-05-29T02:50:34;10.60;89.30
30134;DHT22;16946;49.984;10.672;2023-05-29T02:51:05;10.60;88.00
30134;DHT22;16946;49.984;10.672;2023-05-29T02:51:36;10.60;90.70
30134;DHT22;16946;49.984;10.672;2023-05-29T02:52:07;10.60;91.90
30134;DHT22;16946;49.984;10.672;2023-05-29T02:52:38;10.60;90.60
30134;DHT22;16946;49.984;10.672;2023-05-29T02:53:08;10.60;90.70
30134;DHT22;16946;49.984;10.672;2023-05-29T02:53:39;10.60;89.80
30134;DHT22;16946;49.984;10.672;2023-05-29T02:54:09;10.60;90.20
30134;DHT22;16946;49.984;10.672;2023-05-29T02:54:42;10.60;91.70
30134;DHT22;16946;49.984;10.672;2023-05-29T02:55:13;10.60;93.70
30134;DHT22;16946;49.984;10.672;2023-05-29T02:55:43;10.50;91.80
30134;DHT22;16946;49.984;10.672;2023-05-29T02:56:14;10.50;92.90
30134;DHT22;16946;49.984;10.672;2023-05-29T02:56:46;10.50;94.70
30134;DHT22;16946;49.984;10.672;2023-05-29T02:57:16;10.50;93.60
30134;DHT22;16946;49.984;10.672;2023-05-29T02:57:47;10.50;93.20
30134;DHT22;16946;49.984;10.672;2023-05-29T02:58:19;10.50;95.10
30134;DHT22;16946;49.984;10.672;2023-05-29T02:58:51;10.60;94.50
30134;DHT22;16946;49.984;10.672;2023-05-29T02:59:21;10.50;93.10
30134;DHT22;16946;49.984;10.672;2023-05-29T02:59:52;10.50;91.80
30134;DHT22;16946;49.984;10.672;2023-05-29T03:00:23;10.50;94.20
30134;DHT22;16946;49.984;10.672;2023-05-29T03:00:53;10.60;91.90
30134;DHT22;16946;49.984;10.672;2023-05-29T03:01:23;10.60;90.00
30134;DHT22;16946;49.984;10.672;2023-05-29T03:01:54;10.60;90.80
30134;DHT22;16946;49.984;10.672;2023-05-29T03:02:25;10.60;92.60
30134;DHT22;16946;49.984;10.672;2023-05-29T03:02:55;10.60;92.30
30134;DHT22;16946;49.984;10.672;2023-05-29T03:03:26;10.60;92.10
30134;DHT22;16946;49.984;10.672;2023-05-29T03:03:56;10.60;92.20
30134;DHT22;16946;49.984;10.672;2023-05-29T03:04:27;10.60;91.90
30134;DHT22;16946;49.984;10.672;2023-05-29T03:04:58;10.60;91.40
30134;DHT22;16946;49.984;10.672;2023-05-29T03:05:28;10.60;94.40
30134;DHT22;16946;49.984;10.672;2023-05-29T03:05:59;10.60;93.40
30134;DHT22;16946;49.984;10.672;2023-05-29T03:06:30;10.60;92.80
30134;DHT22;16946;49.984;10.672;2023-05-29T03:07:02;10.60;91.20
30134;DHT22;16946;49.984;10.672;2023-05-29T03:07:33;10.60;89.40
30134;DHT22;16946;49.984;10.672;2023-05-29T03:08:04;10.60;92.00
30134;DHT22;16946;49.984;10.672;2023-05-29T03:08:35;10.50;93.50
30134;DHT22;16946;49.984;10.672;2023-05-29T03:09:05;10.50;95.90
30134;DHT22;16946;49.984;10.672;2023-05-29T03:09:36;10.50;96.00
30134;DHT22;16946;49.984;10.672;2023-05-29T03:10:07;10.50;94.30
30134;DHT22;16946;49.984;10.672;2023-05-29T03:10:38;10.50;93.00
30134;DHT22;16946;49.984;10.672;2023-05-29T03:11:08;10.50;91.00
30134;DHT22;16946;49.984;10.672;2023-05-29T03:11:41;10.60;91.40
30134;DHT22;16946;49.984;10.672;2023-05-29T03:12:11;10.50;92.30
30134;DHT22;16946;49.984;10.672;2023-05-29T03:12:42;10.50;94.30
30134;DHT22;16946;49.984;10.672;2023-05-29T03:13:14;10.50;93.70
30134;DHT22;16946;49.984;10.672;2023-05-29T03:13:44;10.50;92.90
30134;DHT22;16946;49.984;10.672;2023-05-29T03:14:16;10.50;92.40
30134;DHT22;16946;49.984;10.672;2023-05-29T03:14:49;10.50;92.90
30134;DHT22;16946;49.984;10.672;2023-05-29T03:15:19;10.40;95.40
30134;DHT22;16946;49.984;10.672;2023-05-29T03:15:50;10.40;95.60
30134;DHT22;16946;49.984;10.672;2023-05-29T03:16:21;10.40;96.10
30134;DHT22;16946;49.984;10.672;2023-05-29T03:16:51;10.40;99.90
30134;DHT22;16946;49.984;10.672;2023-05-29T03:17:23;10.40;99.90
30134;DHT22;16946;49.984;10.672;2023-05-29T03:17:53;10.40;99.90
30134;DHT22;16946;49.984;10.672;2023-05-29T03:18:24;10.40;99.90
30134;DHT22;16946;49.984;10.672;2023-05-29T03:18:55;10.30;99.90
30134;DHT22;16946;49.984;10.672;2023-05-29T03:19:25;10.30;99.90
30134;DHT22;16946;49.984;10.672;2023-05-29T03:19:56;10.30;99.90
30134;DHT22;16946;49.984;10.672;2023-05-29T03:20:27;10.30;99.90
30134;DHT22;16946;49.984;10.672;2023-05-29T03:20:58;10.30;99.90
30134;DHT22;16946;49.984;10.672;2023-05-29T03:21:29;10.20;99.90
30134;DHT22;16946;49.984;10.672;2023-05-29T03:21:59;10.20;99.90
30134;DHT22;16946;49.984;10.672;2023-05-29T03:22:30;10.20;99.90
30134;DHT22;16946;49.984;10.672;2023-05-29T03:23:00;10.20;99.90